sensor_id;sensor_type;location;lat;lon;timestamp;temperature;humidity
12438;DHT22;6283;51.330;12.374;2023-05-07T00:01:49;11.50;99.90
12438;DHT22;6283;51.330;12.374;2023-05-07T00:04:14;11.40;99.90
12438;DHT22;6283;51.330;12.374;2023-05-07T00:06:40;11.20;99.90
12438;DHT22;6283;51.330;12.374;2023-05-07T00:09:06;11.10;99.90
12438;DHT22;6283;51.330;12.374;2023-05-07T00:11:33;11.10;99.90
12438;DHT22;6283;51.330;12.374;2023-05-07T00:13:58;11.00;99.90
12438;DHT22;6283;51.330;12.374;2023-05-07T00:16:24;11.30;99.90
12438;DHT22;6283;51.330;12.374;2023-05-07T00:18:50;11.30;99.90
12438;DHT22;6283;51.330;12.374;2023-05-07T00:21:15;11.10;99.90
12438;DHT22;6283;51.330;12.374;2023-05-07T00:23:41;11.10;99.90
12438;DHT22;6283;51.330;12.374;2023-05-07T00:26:06;11.30;99.90
12438;DHT22;6283;51.330;12.374;2023-05-07T00:28:32;11.00;99.90
12438;DHT22;6283;51.330;12.374;2023-05-07T00:30:58;11.20;99.90
12438;DHT22;6283;51.330;12.374;2023-05-07T00:33:23;11.30;99.90
12438;DHT22;6283;51.330;12.374;2023-05-07T00:35:49;11.20;99.90
12438;DHT22;6283;51.330;12.374;2023-05-07T00:38:15;11.20;99.90
12438;DHT22;6283;51.330;12.374;2023-05-07T00:40:41;11.20;99.90
12438;DHT22;6283;51.330;12.374;2023-05-07T00:43:06;11.00;99.90
12438;DHT22;6283;51.330;12.374;2023-05-07T00:45:32;10.90;99.90
12438;DHT22;6283;51.330;12.374;2023-05-07T00:48:00;11.10;99.90
12438;DHT22;6283;51.330;12.374;2023-05-07T00:50:30;11.30;99.90
12438;DHT22;6283;51.330;12.374;2023-05-07T00:52:56;11.00;99.90
12438;DHT22;6283;51.330;12.374;2023-05-07T00:55:22;11.00;99.90
12438;DHT22;6283;51.330;12.374;2023-05-07T00:57:49;11.20;99.90
12438;DHT22;6283;51.330;12.374;2023-05-07T01:00:16;11.00;99.90
12438;DHT22;6283;51.330;12.374;2023-05-07T01:02:42;11.30;99.90
12438;DHT22;6283;51.330;12.374;2023-05-07T01:05:11;11.20;99.90
12438;DHT22;6283;51.330;12.374;2023-05-07T01:07:39;10.90;99.90
12438;DHT22;6283;51.330;12.374;2023-05-07T01:10:06;11.30;99.90
12438;DHT22;6283;51.330;12.374;2023-05-07T01:12:34;11.10;99.90
12438;DHT22;6283;51.330;12.374;2023-05-07T01:15:01;11.10;99.90
12438;DHT22;6283;51.330;12.374;2023-05-07T01:17:27;10.90;99.90
12438;DHT22;6283;51.330;12.374;2023-05-07T01:19:53;11.00;99.90
12438;DHT22;6283;51.330;12.374;2023-05-07T01:22:39;10.90;99.90
12438;DHT22;6283;51.330;12.374;2023-05-07T01:25:06;10.80;99.90
12438;DHT22;6283;51.330;12.374;2023-05-07T01:27:33;10.80;99.90
12438;DHT22;6283;51.330;12.374;2023-05-07T01:30:01;10.90;99.90
12438;DHT22;6283;51.330;12.374;2023-05-07T01:32:58;10.80;99.90
12438;DHT22;6283;51.330;12.374;2023-05-07T01:35:27;10.70;99.90
12438;DHT22;6283;51.330;12.374;2023-05-07T01:37:54;10.90;99.90
12438;DHT22;6283;51.330;12.374;2023-05-07T01:40:20;11.10;99.90
12438;DHT22;6283;51.330;12.374;2023-05-07T01:42:47;10.70;99.90
12438;DHT22;6283;51.330;12.374;2023-05-07T01:45:13;10.90;99.90
12438;DHT22;6283;51.330;12.374;2023-05-07T01:47:39;10.70;99.90
12438;DHT22;6283;51.330;12.374;2023-05-07T01:50:06;10.90;99.90
12438;DHT22;6283;51.330;12.374;2023-05-07T01:52:34;10.80;99.90
12438;DHT22;6283;51.330;12.374;2023-05-07T01:54:59;10.90;99.90
12438;DHT22;6283;51.330;12.374;2023-05-07T01:57:25;11.10;99.90
12438;DHT22;6283;51.330;12.374;2023-05-07T01:59:51;10.80;99.90
12438;DHT22;6283;51.330;12.374;2023-05-07T02:02:16;11.10;99.90
12438;DHT22;6283;51.330;12.374;2023-05-07T02:04:42;10.90;99.90
12438;DHT22;6283;51.330;12.374;2023-05-07T02:07:07;10.80;99.90
12438;DHT22;6283;51.330;12.374;2023-05-07T02:09:33;10.80;99.90
12438;DHT22;6283;51.330;12.374;2023-05-07T02:11:59;10.70;99.90
12438;DHT22;6283;51.330;12.374;2023-05-07T02:14:25;10.80;99.90
12438;DHT22;6283;51.330;12.374;2023-05-07T02:16:51;10.80;99.90
12438;DHT22;6283;51.330;12.374;2023-05-07T02:19:16;10.70;99.90
12438;DHT22;6283;51.330;12.374;2023-05-07T02:21:43;10.90;99.90
12438;DHT22;6283;51.330;12.374;2023-05-07T02:24:09;10.80;99.90
12438;DHT22;6283;51.330;12.374;2023-05-07T02:26:34;10.60;99.90
12438;DHT22;6283;51.330;12.374;2023-05-07T02:29:00;10.70;99.90
12438;DHT22;6283;51.330;12.374;2023-05-07T02:31:26;10.70;99.90
12438;DHT22;6283;51.330;12.374;2023-05-07T02:33:51;10.60;99.90
12438;DHT22;6283;51.330;12.374;2023-05-07T02:36:17;10.70;99.90
12438;DHT22;6283;51.330;12.374;2023-05-07T02:38:42;10.60;1.00
12438;DHT22;6283;51.330;12.374;2023-05-07T02:41:08;10.70;99.90
12438;DHT22;6283;51.330;12.374;2023-05-07T02:43:34;10.60;99.90
12438;DHT22;6283;51.330;12.374;2023-05-07T02:46:06;10.80;1.00
12438;DHT22;6283;51.330;12.374;2023-05-07T02:48:32;10.80;99.90
12438;DHT22;6283;51.330;12.374;2023-05-07T02:50:59;10.80;99.90
12438;DHT22;6283;51.330;12.374;2023-05-07T02:53:25;10.80;99.90
12438;DHT22;6283;51.330;12.374;2023-05-07T02:55:59;10.80;99.90
12438;DHT22;6283;51.330;12.374;2023-05-07T02:58:26;10.60;99.90
12438;DHT22;6283;51.330;12.374;2023-05-07T03:00:52;10.90;99.90
12438;DHT22;6283;51.330;12.374;2023-05-07T03:03:18;10.60;99.90
12438;DHT22;6283;51.330;12.374;2023-05-07T03:05:43;10.70;99.90
12438;DHT22;6283;51.330;12.374;2023-05-07T03:08:09;10.70;99.90
12438;DHT22;6283;51.330;12.374;2023-05-07T03:10:36;10.60;1.00
12438;DHT22;6283;51.330;12.374;2023-05-07T03:13:02;10.80;99.90
12438;DHT22;6283;51.330;12.374;2023-05-07T03:15:27;10.80;99.90
12438;DHT22;6283;51.330;12.374;2023-05-07T03:17:53;10.90;99.90
12438;DHT22;6283;51.330;12.374;2023-05-07T03:20:18;10.60;99.90
12438;DHT22;6283;51.330;12.374;2023-05-07T03:22:44;10.40;99.90
12438;DHT22;6283;51.330;12.374;2023-05-07T03:25:10;10.50;1.00
12438;DHT22;6283;51.330;12.374;2023-05-07T03:27:36;10.70;1.00
12438;DHT22;6283;51.330;12.374;2023-05-07T03:30:01;10.80;1.00
12438;DHT22;6283;51.330;12.374;2023-05-07T03:32:27;10.60;1.00
12438;DHT22;6283;51.330;12.374;2023-05-07T03:34:53;10.60;1.00
12438;DHT22;6283;51.330;12.374;2023-05-07T03:37:18;10.60;1.00
12438;DHT22;6283;51.330;12.374;2023-05-07T03:39:44;10.50;1.00
12438;DHT22;6283;51.330;12.374;2023-05-07T03:42:10;10.80;1.00
12438;DHT22;6283;51.330;12.374;2023-05-07T03:44:36;10.70;1.00
12438;DHT22;6283;51.330;12.374;2023-05-07T03:47:02;10.70;1.00
12438;DHT22;6283;51.330;12.374;2023-05-07T03:49:28;10.60;1.00
12438;DHT22;6283;51.330;12.374;2023-05-07T03:51:53;10.60;1.00
12438;DHT22;6283;51.330;12.374;2023-05-07T03:54:19;10.60;1.00
12438;DHT22;6283;51.330;12.374;2023-05-07T03:56:45;10.90;1.00
12438;DHT22;6283;51.330;12.374;2023-05-07T03:59:11;10.80;1.00
12438;DHT22;6283;51.330;12.374;2023-05-07T04:01:37;10.70;1.00
12438;DHT22;6283;51.330;12.374;2023-05-07T04:04:02;10.70;1.00
12438;DHT22;6283;51.330;12.374;2023-05-07T04:06:29;10.70;1.00
12438;DHT22;6283;51.330;12.374;2023-05-07T04:08:55;10.70;1.00
12438;DHT22;6283;51.330;12.374;2023-05-07T04:11:21;10.60;1.00
12438;DHT22;6283;51.330;12.374;2023-05-07T04:13:46;10.80;1.00
12438;DHT22;6283;51.330;12.374;2023-05-07T04:16:12;10.80;1.00
12438;DHT22;6283;51.330;12.374;2023-05-07T04:18:38;10.70;1.00
12438;DHT22;6283;51.330;12.374;2023-05-07T04:21:04;10.80;1.00
12438;DHT22;6283;51.330;12.374;2023-05-07T04:23:29;10.80;1.00
12438;DHT22;6283;51.330;12.374;2023-05-07T04:25:55;10.70;1.00
12438;DHT22;6283;51.330;12.374;2023-05-07T04:28:21;10.90;1.00
12438;DHT22;6283;51.330;12.374;2023-05-07T04:30:47;10.80;1.00
12438;DHT22;6283;51.330;12.374;2023-05-07T04:33:14;11.00;1.00
12438;DHT22;6283;51.330;12.374;2023-05-07T04:35:42;11.00;1.00
12438;DHT22;6283;51.330;12.374;2023-05-07T04:38:07;10.80;1.00
12438;DHT22;6283;51.330;12.374;2023-05-07T04:40:35;11.00;99.90
12438;DHT22;6283;51.330;12.374;2023-05-07T04:43:01;10.90;99.90
12438;DHT22;6283;51.330;12.374;2023-05-07T04:45:26;11.00;99.90
12438;DHT22;6283;51.330;12.374;2023-05-07T04:47:52;10.90;99.90
12438;DHT22;6283;51.330;12.374;2023-05-07T04:50:18;10.90;99.90
12438;DHT22;6283;51.330;12.374;2023-05-07T04:52:45;11.10;99.90
12438;DHT22;6283;51.330;12.374;2023-05-07T04:55:10;11.00;99.90
12438;DHT22;6283;51.330;12.374;2023-05-07T04:57:36;10.90;99.90
12438;DHT22;6283;51.330;12.374;2023-05-07T05:00:04;10.90;99.90
12438;DHT22;6283;51.330;12.374;2023-05-07T05:02:29;10.70;1.00
12438;DHT22;6283;51.330;12.374;2023-05-07T05:04:55;11.00;1.00
12438;DHT22;6283;51.330;12.374;2023-05-07T05:07:21;10.70;1.00
12438;DHT22;6283;51.330;12.374;2023-05-07T05:09:46;10.90;1.00
12438;DHT22;6283;51.330;12.374;2023-05-07T05:12:12;11.00;99.90
12438;DHT22;6283;51.330;12.374;2023-05-07T05:14:37;10.80;1.40
12438;DHT22;6283;51.330;12.374;2023-05-07T05:17:03;10.80;1.00
12438;DHT22;6283;51.330;12.374;2023-05-07T05:19:29;10.90;99.90
12438;DHT22;6283;51.330;12.374;2023-05-07T05:21:54;11.00;99.90
12438;DHT22;6283;51.330;12.374;2023-05-07T05:24:20;10.80;99.90
12438;DHT22;6283;51.330;12.374;2023-05-07T05:26:46;11.00;99.90
12438;DHT22;6283;51.330;12.374;2023-05-07T05:29:11;10.80;99.90
12438;DHT22;6283;51.330;12.374;2023-05-07T05:31:37;10.80;99.90
12438;DHT22;6283;51.330;12.374;2023-05-07T05:34:02;10.90;99.90
12438;DHT22;6283;51.330;12.374;2023-05-07T05:36:29;10.80;99.90
12438;DHT22;6283;51.330;12.374;2023-05-07T05:38:55;11.00;99.90
12438;DHT22;6283;51.330;12.374;2023-05-07T05:41:21;11.00;99.90
12438;DHT22;6283;51.330;12.374;2023-05-07T05:43:47;10.90;99.90
12438;DHT22;6283;51.330;12.374;2023-05-07T05:46:12;10.80;99.90
12438;DHT22;6283;51.330;12.374;2023-05-07T05:48:38;11.00;99.90
12438;DHT22;6283;51.330;12.374;2023-05-07T05:51:03;11.20;99.90
12438;DHT22;6283;51.330;12.374;2023-05-07T05:53:29;11.00;99.90
12438;DHT22;6283;51.330;12.374;2023-05-07T05:55:55;10.90;99.90
12438;DHT22;6283;51.330;12.374;2023-05-07T05:58:20;11.00;99.90
12438;DHT22;6283;51.330;12.374;2023-05-07T06:00:46;10.90;99.90
12438;DHT22;6283;51.330;12.374;2023-05-07T06:03:13;11.10;99.90
12438;DHT22;6283;51.330;12.374;2023-05-07T06:05:39;11.40;99.90
12438;DHT22;6283;51.330;12.374;2023-05-07T06:08:05;11.10;99.90
12438;DHT22;6283;51.330;12.374;2023-05-07T06:10:30;10.90;99.90
12438;DHT22;6283;51.330;12.374;2023-05-07T06:12:56;11.20;99.90
12438;DHT22;6283;51.330;12.374;2023-05-07T06:15:22;11.10;99.90
12438;DHT22;6283;51.330;12.374;2023-05-07T06:17:48;11.10;99.90
12438;DHT22;6283;51.330;12.374;2023-05-07T06:20:14;11.30;99.90
12438;DHT22;6283;51.330;12.374;2023-05-07T06:22:40;11.40;99.90
12438;DHT22;6283;51.330;12.374;2023-05-07T06:25:06;11.10;99.90
12438;DHT22;6283;51.330;12.374;2023-05-07T06:27:31;11.30;99.90
12438;DHT22;6283;51.330;12.374;2023-05-07T06:29:57;11.20;99.90
12438;DHT22;6283;51.330;12.374;2023-05-07T06:32:23;11.40;99.90
12438;DHT22;6283;51.330;12.374;2023-05-07T06:34:48;11.40;99.90
12438;DHT22;6283;51.330;12.374;2023-05-07T06:37:14;11.40;99.90
12438;DHT22;6283;51.330;12.374;2023-05-07T06:39:39;11.40;99.90
12438;DHT22;6283;51.330;12.374;2023-05-07T06:42:05;11.40;99.90
12438;DHT22;6283;51.330;12.374;2023-05-07T06:44:31;11.40;99.90
12438;DHT22;6283;51.330;12.374;2023-05-07T06:46:57;11.40;99.90
12438;DHT22;6283;51.330;12.374;2023-05-07T06:49:22;11.50;99.90
12438;DHT22;6283;51.330;12.374;2023-05-07T06:51:48;11.50;99.90
12438;DHT22;6283;51.330;12.374;2023-05-07T06:54:14;11.40;99.90
12438;DHT22;6283;51.330;12.374;2023-05-07T06:56:39;11.60;99.90
12438;DHT22;6283;51.330;12.374;2023-05-07T06:59:06;11.60;99.90
12438;DHT22;6283;51.330;12.374;2023-05-07T07:01:32;11.50;99.90
12438;DHT22;6283;51.330;12.374;2023-05-07T07:03:57;11.30;99.90
12438;DHT22;6283;51.330;12.374;2023-05-07T07:06:23;11.60;99.90
12438;DHT22;6283;51.330;12.374;2023-05-07T07:08:48;11.50;99.90
12438;DHT22;6283;51.330;12.374;2023-05-07T07:11:15;11.70;99.90
12438;DHT22;6283;51.330;12.374;2023-05-07T07:13:41;11.80;99.90
12438;DHT22;6283;51.330;12.374;2023-05-07T07:16:06;11.70;99.90
12438;DHT22;6283;51.330;12.374;2023-05-07T07:18:32;11.80;99.90
12438;DHT22;6283;51.330;12.374;2023-05-07T07:20:58;11.80;99.90
12438;DHT22;6283;51.330;12.374;2023-05-07T07:23:24;12.00;99.90
12438;DHT22;6283;51.330;12.374;2023-05-07T07:25:50;11.80;99.90
12438;DHT22;6283;51.330;12.374;2023-05-07T07:28:16;11.80;99.90
12438;DHT22;6283;51.330;12.374;2023-05-07T07:30:42;11.70;99.90
12438;DHT22;6283;51.330;12.374;2023-05-07T07:33:07;12.20;99.90
12438;DHT22;6283;51.330;12.374;2023-05-07T07:35:33;12.00;99.90
12438;DHT22;6283;51.330;12.374;2023-05-07T07:37:59;12.20;99.90
12438;DHT22;6283;51.330;12.374;2023-05-07T07:40:25;12.20;99.90
12438;DHT22;6283;51.330;12.374;2023-05-07T07:42:51;12.40;99.90
12438;DHT22;6283;51.330;12.374;2023-05-07T07:45:17;12.40;99.90
12438;DHT22;6283;51.330;12.374;2023-05-07T07:47:43;12.40;99.90
12438;DHT22;6283;51.330;12.374;2023-05-07T07:50:09;12.20;99.90
12438;DHT22;6283;51.330;12.374;2023-05-07T07:52:34;12.40;99.90
12438;DHT22;6283;51.330;12.374;2023-05-07T07:55:00;12.50;99.90
12438;DHT22;6283;51.330;12.374;2023-05-07T07:57:26;12.50;99.90
12438;DHT22;6283;51.330;12.374;2023-05-07T07:59:52;12.20;99.90
12438;DHT22;6283;51.330;12.374;2023-05-07T08:02:18;12.50;99.60
12438;DHT22;6283;51.330;12.374;2023-05-07T08:04:43;12.40;95.50
12438;DHT22;6283;51.330;12.374;2023-05-07T08:07:10;12.30;93.80
12438;DHT22;6283;51.330;12.374;2023-05-07T08:09:37;12.40;88.80
12438;DHT22;6283;51.330;12.374;2023-05-07T08:12:03;12.40;85.60
12438;DHT22;6283;51.330;12.374;2023-05-07T08:14:29;12.40;86.80
12438;DHT22;6283;51.330;12.374;2023-05-07T08:16:55;12.50;83.70
12438;DHT22;6283;51.330;12.374;2023-05-07T08:19:20;12.50;79.30
12438;DHT22;6283;51.330;12.374;2023-05-07T08:21:47;12.40;99.90
12438;DHT22;6283;51.330;12.374;2023-05-07T08:24:17;12.70;75.90
12438;DHT22;6283;51.330;12.374;2023-05-07T08:26:44;12.50;72.20
12438;DHT22;6283;51.330;12.374;2023-05-07T08:29:10;12.60;70.60
12438;DHT22;6283;51.330;12.374;2023-05-07T08:31:36;12.60;70.10
12438;DHT22;6283;51.330;12.374;2023-05-07T08:34:03;12.40;64.00
12438;DHT22;6283;51.330;12.374;2023-05-07T08:36:28;12.40;63.10
12438;DHT22;6283;51.330;12.374;2023-05-07T08:38:54;12.50;57.90
12438;DHT22;6283;51.330;12.374;2023-05-07T08:41:20;12.60;77.00
12438;DHT22;6283;51.330;12.374;2023-05-07T08:43:48;12.70;56.30
12438;DHT22;6283;51.330;12.374;2023-05-07T08:46:18;12.40;48.80
12438;DHT22;6283;51.330;12.374;2023-05-07T08:48:45;12.50;49.20
12438;DHT22;6283;51.330;12.374;2023-05-07T08:51:14;12.40;49.50
12438;DHT22;6283;51.330;12.374;2023-05-07T08:53:41;12.50;51.70
12438;DHT22;6283;51.330;12.374;2023-05-07T08:56:08;12.20;53.80
12438;DHT22;6283;51.330;12.374;2023-05-07T08:58:35;12.40;50.70
12438;DHT22;6283;51.330;12.374;2023-05-07T09:01:08;12.30;46.60
12438;DHT22;6283;51.330;12.374;2023-05-07T09:03:34;12.50;47.90
12438;DHT22;6283;51.330;12.374;2023-05-07T09:06:00;12.50;51.30
12438;DHT22;6283;51.330;12.374;2023-05-07T09:08:27;12.50;48.40
12438;DHT22;6283;51.330;12.374;2023-05-07T09:10:53;12.50;51.10
12438;DHT22;6283;51.330;12.374;2023-05-07T09:13:19;12.60;48.30
12438;DHT22;6283;51.330;12.374;2023-05-07T09:15:45;12.80;42.40
12438;DHT22;6283;51.330;12.374;2023-05-07T09:18:11;12.70;40.30
12438;DHT22;6283;51.330;12.374;2023-05-07T09:20:38;12.60;36.70
12438;DHT22;6283;51.330;12.374;2023-05-07T09:23:03;12.80;53.20
12438;DHT22;6283;51.330;12.374;2023-05-07T09:25:31;12.90;35.10
12438;DHT22;6283;51.330;12.374;2023-05-07T09:27:58;12.90;32.60
12438;DHT22;6283;51.330;12.374;2023-05-07T09:30:28;12.80;34.30
12438;DHT22;6283;51.330;12.374;2023-05-07T09:32:54;12.80;34.40
12438;DHT22;6283;51.330;12.374;2023-05-07T09:35:20;12.90;35.30
12438;DHT22;6283;51.330;12.374;2023-05-07T09:37:53;12.80;35.20
12438;DHT22;6283;51.330;12.374;2023-05-07T09:40:23;12.80;32.20
12438;DHT22;6283;51.330;12.374;2023-05-07T09:42:50;12.80;28.80
12438;DHT22;6283;51.330;12.374;2023-05-07T09:45:42;13.00;29.60
12438;DHT22;6283;51.330;12.374;2023-05-07T09:48:08;12.90;33.00
12438;DHT22;6283;51.330;12.374;2023-05-07T09:50:36;12.90;33.30
12438;DHT22;6283;51.330;12.374;2023-05-07T09:53:10;13.00;32.50
12438;DHT22;6283;51.330;12.374;2023-05-07T09:55:36;12.90;32.50
12438;DHT22;6283;51.330;12.374;2023-05-07T09:58:04;12.90;33.10
12438;DHT22;6283;51.330;12.374;2023-05-07T10:00:31;12.90;28.60
12438;DHT22;6283;51.330;12.374;2023-05-07T10:02:58;13.10;27.50
12438;DHT22;6283;51.330;12.374;2023-05-07T10:05:26;13.00;23.70
12438;DHT22;6283;51.330;12.374;2023-05-07T10:07:53;13.00;27.50
12438;DHT22;6283;51.330;12.374;2023-05-07T10:10:19;12.90;26.20
12438;DHT22;6283;51.330;12.374;2023-05-07T10:12:45;13.00;26.50
12438;DHT22;6283;51.330;12.374;2023-05-07T10:15:12;13.10;27.40
12438;DHT22;6283;51.330;12.374;2023-05-07T10:17:40;12.90;26.80
12438;DHT22;6283;51.330;12.374;2023-05-07T10:20:07;13.40;23.20
12438;DHT22;6283;51.330;12.374;2023-05-07T10:22:39;13.20;20.90
12438;DHT22;6283;51.330;12.374;2023-05-07T10:25:25;13.30;22.10
12438;DHT22;6283;51.330;12.374;2023-05-07T10:27:55;13.30;21.20
12438;DHT22;6283;51.330;12.374;2023-05-07T10:33:02;13.30;18.00
12438;DHT22;6283;51.330;12.374;2023-05-07T10:35:36;13.30;18.10
12438;DHT22;6283;51.330;12.374;2023-05-07T10:38:03;13.10;14.80
12438;DHT22;6283;51.330;12.374;2023-05-07T10:40:31;13.30;14.30
12438;DHT22;6283;51.330;12.374;2023-05-07T10:42:58;13.20;14.50
12438;DHT22;6283;51.330;12.374;2023-05-07T10:45:28;13.30;16.20
12438;DHT22;6283;51.330;12.374;2023-05-07T10:50:35;13.30;13.70
12438;DHT22;6283;51.330;12.374;2023-05-07T10:55:49;13.50;11.80
12438;DHT22;6283;51.330;12.374;2023-05-07T11:00:48;13.50;10.20
12438;DHT22;6283;51.330;12.374;2023-05-07T11:03:14;13.70;8.50
12438;DHT22;6283;51.330;12.374;2023-05-07T11:05:41;13.70;6.10
12438;DHT22;6283;51.330;12.374;2023-05-07T11:08:08;13.70;4.50
12438;DHT22;6283;51.330;12.374;2023-05-07T11:10:55;13.60;5.20
12438;DHT22;6283;51.330;12.374;2023-05-07T11:13:41;13.60;8.40
12438;DHT22;6283;51.330;12.374;2023-05-07T11:16:36;13.50;7.60
12438;DHT22;6283;51.330;12.374;2023-05-07T11:19:03;13.60;6.90
12438;DHT22;6283;51.330;12.374;2023-05-07T11:21:39;13.80;8.20
12438;DHT22;6283;51.330;12.374;2023-05-07T11:24:06;13.70;8.00
12438;DHT22;6283;51.330;12.374;2023-05-07T11:26:46;13.90;6.50
12438;DHT22;6283;51.330;12.374;2023-05-07T11:29:20;14.20;1.50
12438;DHT22;6283;51.330;12.374;2023-05-07T11:31:50;14.00;1.00
12438;DHT22;6283;51.330;12.374;2023-05-07T11:34:21;14.50;1.00
12438;DHT22;6283;51.330;12.374;2023-05-07T11:36:47;14.20;1.00
12438;DHT22;6283;51.330;12.374;2023-05-07T11:39:30;14.40;1.00
12438;DHT22;6283;51.330;12.374;2023-05-07T11:42:01;14.20;1.00
12438;DHT22;6283;51.330;12.374;2023-05-07T11:44:47;14.10;1.00
12438;DHT22;6283;51.330;12.374;2023-05-07T11:47:18;14.20;1.00
12438;DHT22;6283;51.330;12.374;2023-05-07T11:49:49;14.40;1.00
12438;DHT22;6283;51.330;12.374;2023-05-07T11:52:20;14.20;1.00
12438;DHT22;6283;51.330;12.374;2023-05-07T11:54:52;14.20;1.00
12438;DHT22;6283;51.330;12.374;2023-05-07T11:57:18;14.30;1.00
12438;DHT22;6283;51.330;12.374;2023-05-07T11:59:45;14.30;1.00
12438;DHT22;6283;51.330;12.374;2023-05-07T12:02:14;14.30;1.00
12438;DHT22;6283;51.330;12.374;2023-05-07T12:04:39;14.20;1.00
12438;DHT22;6283;51.330;12.374;2023-05-07T12:07:05;14.00;1.00
12438;DHT22;6283;51.330;12.374;2023-05-07T12:09:33;14.40;1.00
12438;DHT22;6283;51.330;12.374;2023-05-07T12:12:03;14.30;1.00
12438;DHT22;6283;51.330;12.374;2023-05-07T12:14:29;14.40;1.00
12438;DHT22;6283;51.330;12.374;2023-05-07T12:16:55;14.10;1.00
12438;DHT22;6283;51.330;12.374;2023-05-07T12:19:21;14.30;1.00
12438;DHT22;6283;51.330;12.374;2023-05-07T12:21:48;14.10;1.00
12438;DHT22;6283;51.330;12.374;2023-05-07T12:24:14;14.10;1.00
12438;DHT22;6283;51.330;12.374;2023-05-07T12:26:40;14.20;1.00
12438;DHT22;6283;51.330;12.374;2023-05-07T12:29:06;14.30;1.00
12438;DHT22;6283;51.330;12.374;2023-05-07T12:31:32;14.50;1.00
12438;DHT22;6283;51.330;12.374;2023-05-07T12:33:58;14.50;1.00
12438;DHT22;6283;51.330;12.374;2023-05-07T12:36:24;14.70;1.00
12438;DHT22;6283;51.330;12.374;2023-05-07T12:38:51;14.80;1.00
12438;DHT22;6283;51.330;12.374;2023-05-07T12:41:16;14.90;1.00
12438;DHT22;6283;51.330;12.374;2023-05-07T12:43:46;15.10;1.00
12438;DHT22;6283;51.330;12.374;2023-05-07T12:46:12;15.30;1.00
12438;DHT22;6283;51.330;12.374;2023-05-07T12:48:44;15.30;1.00
12438;DHT22;6283;51.330;12.374;2023-05-07T12:51:11;15.30;1.00
12438;DHT22;6283;51.330;12.374;2023-05-07T12:53:42;15.20;1.00
12438;DHT22;6283;51.330;12.374;2023-05-07T12:56:08;15.40;1.00
12438;DHT22;6283;51.330;12.374;2023-05-07T12:58:35;15.50;1.00
12438;DHT22;6283;51.330;12.374;2023-05-07T13:01:04;15.60;1.00
12438;DHT22;6283;51.330;12.374;2023-05-07T13:03:32;15.50;1.00
12438;DHT22;6283;51.330;12.374;2023-05-07T13:06:06;15.50;1.00
12438;DHT22;6283;51.330;12.374;2023-05-07T13:08:34;15.40;1.00
12438;DHT22;6283;51.330;12.374;2023-05-07T13:11:01;15.40;1.00
12438;DHT22;6283;51.330;12.374;2023-05-07T13:13:31;15.50;1.00
12438;DHT22;6283;51.330;12.374;2023-05-07T13:15:57;15.60;1.00
12438;DHT22;6283;51.330;12.374;2023-05-07T13:18:24;15.90;1.00
12438;DHT22;6283;51.330;12.374;2023-05-07T13:20:50;16.10;1.00
12438;DHT22;6283;51.330;12.374;2023-05-07T13:23:17;16.40;1.00
12438;DHT22;6283;51.330;12.374;2023-05-07T13:25:42;16.50;1.00
12438;DHT22;6283;51.330;12.374;2023-05-07T13:28:08;16.60;1.00
12438;DHT22;6283;51.330;12.374;2023-05-07T13:30:34;16.70;1.00
12438;DHT22;6283;51.330;12.374;2023-05-07T13:33:00;16.60;1.00
12438;DHT22;6283;51.330;12.374;2023-05-07T13:35:25;16.50;1.00
12438;DHT22;6283;51.330;12.374;2023-05-07T13:37:51;16.50;1.00
12438;DHT22;6283;51.330;12.374;2023-05-07T13:40:17;16.40;1.00
12438;DHT22;6283;51.330;12.374;2023-05-07T13:42:44;16.30;1.00
12438;DHT22;6283;51.330;12.374;2023-05-07T13:45:10;16.30;1.00
12438;DHT22;6283;51.330;12.374;2023-05-07T13:47:36;16.20;1.00
12438;DHT22;6283;51.330;12.374;2023-05-07T13:50:01;16.20;1.00
12438;DHT22;6283;51.330;12.374;2023-05-07T13:52:27;16.20;1.00
12438;DHT22;6283;51.330;12.374;2023-05-07T13:54:52;16.10;1.00
12438;DHT22;6283;51.330;12.374;2023-05-07T13:57:18;16.10;1.00
12438;DHT22;6283;51.330;12.374;2023-05-07T13:59:44;16.10;1.00
12438;DHT22;6283;51.330;12.374;2023-05-07T14:02:09;16.00;1.00
12438;DHT22;6283;51.330;12.374;2023-05-07T14:04:36;15.90;1.00
12438;DHT22;6283;51.330;12.374;2023-05-07T14:07:02;16.00;1.00
12438;DHT22;6283;51.330;12.374;2023-05-07T14:09:28;16.00;1.00
12438;DHT22;6283;51.330;12.374;2023-05-07T14:11:54;15.90;1.00
12438;DHT22;6283;51.330;12.374;2023-05-07T14:14:19;15.90;1.00
12438;DHT22;6283;51.330;12.374;2023-05-07T14:16:45;15.90;1.00
12438;DHT22;6283;51.330;12.374;2023-05-07T14:19:13;16.00;1.00
12438;DHT22;6283;51.330;12.374;2023-05-07T14:21:39;16.10;1.00
12438;DHT22;6283;51.330;12.374;2023-05-07T14:24:06;16.20;1.00
12438;DHT22;6283;51.330;12.374;2023-05-07T14:26:33;16.30;1.00
12438;DHT22;6283;51.330;12.374;2023-05-07T14:28:58;16.30;1.00
12438;DHT22;6283;51.330;12.374;2023-05-07T14:31:25;16.40;1.00
12438;DHT22;6283;51.330;12.374;2023-05-07T14:33:50;16.40;1.00
12438;DHT22;6283;51.330;12.374;2023-05-07T14:36:17;16.60;1.00
12438;DHT22;6283;51.330;12.374;2023-05-07T14:38:45;16.70;1.00
12438;DHT22;6283;51.330;12.374;2023-05-07T14:41:11;16.70;1.00
12438;DHT22;6283;51.330;12.374;2023-05-07T14:43:37;16.80;1.00
12438;DHT22;6283;51.330;12.374;2023-05-07T14:46:03;16.80;1.00
12438;DHT22;6283;51.330;12.374;2023-05-07T14:48:28;16.70;1.00
12438;DHT22;6283;51.330;12.374;2023-05-07T14:50:54;16.70;1.00
12438;DHT22;6283;51.330;12.374;2023-05-07T14:53:20;16.80;1.00
12438;DHT22;6283;51.330;12.374;2023-05-07T14:55:46;16.90;1.00
12438;DHT22;6283;51.330;12.374;2023-05-07T14:58:12;16.90;1.00
12438;DHT22;6283;51.330;12.374;2023-05-07T15:00:38;17.00;1.00
12438;DHT22;6283;51.330;12.374;2023-05-07T15:03:09;16.90;1.00
12438;DHT22;6283;51.330;12.374;2023-05-07T15:05:35;16.90;1.00
12438;DHT22;6283;51.330;12.374;2023-05-07T15:08:02;16.90;1.00
12438;DHT22;6283;51.330;12.374;2023-05-07T15:10:28;16.90;1.00
12438;DHT22;6283;51.330;12.374;2023-05-07T15:12:54;16.80;1.00
12438;DHT22;6283;51.330;12.374;2023-05-07T15:15:22;16.80;1.00
12438;DHT22;6283;51.330;12.374;2023-05-07T15:17:48;16.60;1.00
12438;DHT22;6283;51.330;12.374;2023-05-07T15:20:13;16.50;1.00
12438;DHT22;6283;51.330;12.374;2023-05-07T15:22:39;16.50;1.00
12438;DHT22;6283;51.330;12.374;2023-05-07T15:25:07;16.40;1.00
12438;DHT22;6283;51.330;12.374;2023-05-07T15:27:32;16.40;1.00
12438;DHT22;6283;51.330;12.374;2023-05-07T15:29:58;16.30;1.00
12438;DHT22;6283;51.330;12.374;2023-05-07T15:32:24;16.20;1.00
12438;DHT22;6283;51.330;12.374;2023-05-07T15:34:50;16.10;1.00
12438;DHT22;6283;51.330;12.374;2023-05-07T15:37:16;16.00;1.00
12438;DHT22;6283;51.330;12.374;2023-05-07T15:39:41;15.80;1.00
12438;DHT22;6283;51.330;12.374;2023-05-07T15:42:07;15.80;1.00
12438;DHT22;6283;51.330;12.374;2023-05-07T15:44:32;15.70;1.00
12438;DHT22;6283;51.330;12.374;2023-05-07T15:46:59;15.60;1.00